createdAt,value
2018-03-02T00:00:02.309Z,-6.93
2018-03-02T00:01:02.451Z,-6.96
2018-03-02T00:02:02.589Z,-6.93
2018-03-02T00:03:02.729Z,-6.84
2018-03-02T00:04:02.874Z,-6.84
2018-03-02T00:05:03.020Z,-6.87
2018-03-02T00:06:03.166Z,-6.84
2018-03-02T00:07:03.314Z,-6.96
2018-03-02T00:08:03.444Z,-6.93
2018-03-02T00:09:03.585Z,-6.90
2018-03-02T00:10:03.751Z,-6.90
2018-03-02T00:11:03.872Z,-6.89
2018-03-02T00:12:04.011Z,-6.86
2018-03-02T00:13:04.160Z,-6.99
2018-03-02T00:14:04.304Z,-6.96
2018-03-02T00:15:04.442Z,-6.97
2018-03-02T00:16:04.592Z,-7.00
2018-03-02T00:17:04.728Z,-7.03
2018-03-02T00:18:04.875Z,-7.07
2018-03-02T00:19:05.012Z,-7.03
2018-03-02T00:20:05.148Z,-7.13
2018-03-02T00:21:05.296Z,-7.13
2018-03-02T00:22:05.437Z,-7.10
2018-03-02T00:23:05.575Z,-7.07
2018-03-02T00:24:05.718Z,-7.18
2018-03-02T00:25:05.863Z,-7.13
2018-03-02T00:26:06.004Z,-7.13
2018-03-02T00:27:06.146Z,-7.10
2018-03-02T00:28:06.296Z,-7.04
2018-03-02T00:29:06.447Z,-7.08
2018-03-02T00:30:06.593Z,-7.15
2018-03-02T00:31:06.719Z,-7.10
2018-03-02T00:32:06.862Z,-7.07
2018-03-02T00:33:07.003Z,-7.08
2018-03-02T00:34:07.146Z,-7.21
2018-03-02T00:35:07.287Z,-7.18
2018-03-02T00:36:07.423Z,-7.18
2018-03-02T00:37:07.570Z,-7.14
2018-03-02T00:38:07.710Z,-7.22
2018-03-02T00:39:07.850Z,-7.14
2018-03-02T00:40:07.995Z,-7.29
2018-03-02T00:41:08.145Z,-7.23
2018-03-02T00:42:08.283Z,-7.22
2018-03-02T00:43:08.422Z,-7.22
2018-03-02T00:44:08.573Z,-7.13
2018-03-02T00:45:08.704Z,-7.25
2018-03-02T00:46:08.846Z,-7.25
2018-03-02T00:47:08.989Z,-7.28
2018-03-02T00:48:09.177Z,-7.26
2018-03-02T00:49:09.274Z,-7.26
2018-03-02T00:50:09.426Z,-7.29
2018-03-02T00:52:09.701Z,-7.25
2018-03-02T00:53:09.846Z,-7.25
2018-03-02T00:54:09.987Z,-7.23
2018-03-02T00:55:10.127Z,-7.29
2018-03-02T00:56:10.268Z,-7.29
2018-03-02T00:57:10.413Z,-7.25
2018-03-02T00:58:10.554Z,-7.23
2018-03-02T00:59:10.699Z,-7.28
2018-03-02T01:00:10.837Z,-7.25
2018-03-02T01:01:10.981Z,-7.21
2018-03-02T01:02:11.148Z,-7.25
2018-03-02T01:03:11.271Z,-7.35
2018-03-02T01:04:11.412Z,-7.38
2018-03-02T01:05:11.556Z,-7.38
2018-03-02T01:06:11.699Z,-7.38
2018-03-02T01:07:11.832Z,-7.29
2018-03-02T01:08:11.974Z,-7.33
2018-03-02T01:09:12.123Z,-7.35
2018-03-02T01:10:12.260Z,-7.33
2018-03-02T01:11:12.401Z,-7.35
2018-03-02T01:12:12.537Z,-7.43
2018-03-02T01:13:12.685Z,-7.36
2018-03-02T01:14:12.816Z,-7.31
2018-03-02T01:15:12.962Z,-7.42
2018-03-02T01:16:13.105Z,-7.44
2018-03-02T01:17:13.239Z,-7.44
2018-03-02T01:18:13.380Z,-7.44
2018-03-02T01:19:13.524Z,-7.40
2018-03-02T01:20:13.668Z,-7.35
2018-03-02T01:21:13.806Z,-7.53
2018-03-02T01:22:13.950Z,-7.46
2018-03-02T01:23:14.094Z,-7.50
2018-03-02T01:24:14.231Z,-7.46
2018-03-02T01:25:14.381Z,-7.42
2018-03-02T01:26:14.514Z,-7.49
2018-03-02T01:27:14.660Z,-7.50
2018-03-02T01:28:14.800Z,-7.65
2018-03-02T01:29:14.940Z,-7.56
2018-03-02T01:30:15.084Z,-7.64
2018-03-02T01:31:15.230Z,-7.65
2018-03-02T01:32:15.367Z,-7.53
2018-03-02T01:33:15.508Z,-7.60
2018-03-02T01:34:15.659Z,-7.56
2018-03-02T01:35:15.793Z,-7.54
2018-03-02T01:36:15.938Z,-7.68
2018-03-02T01:37:16.080Z,-7.71
2018-03-02T01:38:16.225Z,-7.61
2018-03-02T01:39:16.356Z,-7.60
2018-03-02T01:40:16.497Z,-7.52
2018-03-02T01:41:16.643Z,-7.61
2018-03-02T01:42:16.781Z,-7.65
2018-03-02T01:43:16.925Z,-7.60
2018-03-02T01:44:17.060Z,-7.70
2018-03-02T01:45:17.209Z,-7.68
2018-03-02T01:46:17.345Z,-7.68
2018-03-02T01:47:17.487Z,-7.65
2018-03-02T01:48:17.640Z,-7.74
2018-03-02T01:49:17.772Z,-7.72
2018-03-02T01:50:17.913Z,-7.71
2018-03-02T01:51:18.055Z,-7.81
2018-03-02T01:52:18.198Z,-7.75
2018-03-02T01:53:18.341Z,-7.81
2018-03-02T01:54:18.486Z,-7.71
2018-03-02T01:55:18.626Z,-7.86
2018-03-02T01:56:18.768Z,-7.88
2018-03-02T01:57:18.914Z,-7.91
2018-03-02T01:58:19.054Z,-7.79
2018-03-02T01:59:19.202Z,-7.91
2018-03-02T02:00:19.339Z,-7.91
2018-03-02T02:01:19.482Z,-7.85
2018-03-02T02:02:19.619Z,-7.82
2018-03-02T02:03:19.765Z,-7.88
2018-03-02T02:04:19.904Z,-7.86
2018-03-02T02:05:20.048Z,-7.91
2018-03-02T02:06:20.187Z,-7.93
2018-03-02T02:07:20.329Z,-7.97
2018-03-02T02:08:20.472Z,-7.96
2018-03-02T02:09:20.616Z,-7.97
2018-03-02T02:10:20.756Z,-7.96
2018-03-02T02:11:20.897Z,-7.97
2018-03-02T02:12:21.036Z,-7.97
2018-03-02T02:13:21.173Z,-7.97
2018-03-02T02:14:21.316Z,-8.01
2018-03-02T02:15:21.449Z,-8.01
2018-03-02T02:16:21.595Z,-7.96
2018-03-02T02:17:21.990Z,-8.01
2018-03-02T02:18:21.879Z,-8.03
2018-03-02T02:19:22.018Z,-7.92
2018-03-02T02:20:22.422Z,-7.92
2018-03-02T02:21:22.307Z,-8.04
2018-03-02T02:22:22.445Z,-8.03
2018-03-02T02:23:22.598Z,-8.07
2018-03-02T02:24:22.736Z,-8.11
2018-03-02T02:25:22.867Z,-8.18
2018-03-02T02:26:23.012Z,-7.97
2018-03-02T02:27:23.156Z,-8.10
2018-03-02T02:28:23.295Z,-8.05
2018-03-02T02:29:23.443Z,-8.05
2018-03-02T02:30:23.583Z,-8.08
2018-03-02T02:31:23.724Z,-8.15
2018-03-02T02:32:23.869Z,-8.08
2018-03-02T02:33:24.026Z,-8.08
2018-03-02T02:34:24.156Z,-8.21
2018-03-02T02:35:24.291Z,-7.99
2018-03-02T02:36:24.432Z,-8.19
2018-03-02T02:37:24.574Z,-8.22
2018-03-02T02:38:24.716Z,-8.19
2018-03-02T02:39:24.863Z,-8.22
2018-03-02T02:40:25.001Z,-8.11
2018-03-02T02:41:25.142Z,-8.07
2018-03-02T02:42:25.282Z,-8.19
2018-03-02T02:43:25.423Z,-8.11
2018-03-02T02:44:25.628Z,-8.05
2018-03-02T02:45:25.714Z,-8.15
2018-03-02T02:46:25.847Z,-8.21
2018-03-02T02:47:25.997Z,-8.21
2018-03-02T02:48:26.140Z,-8.13
2018-03-02T02:49:26.278Z,-8.05
2018-03-02T02:50:26.417Z,-8.15
2018-03-02T02:51:26.574Z,-8.18
2018-03-02T02:52:26.709Z,-8.19
2018-03-02T02:53:26.838Z,-8.15
2018-03-02T02:54:26.984Z,-8.21
2018-03-02T02:55:27.121Z,-8.25
2018-03-02T02:56:27.264Z,-8.08
2018-03-02T02:57:27.406Z,-8.08
2018-03-02T02:58:27.546Z,-8.13
2018-03-02T02:59:27.770Z,-8.18
2018-03-02T03:00:27.838Z,-8.13
2018-03-02T03:01:27.979Z,-8.11
2018-03-02T03:02:28.119Z,-8.26
2018-03-02T03:03:28.259Z,-8.18
2018-03-02T03:04:28.401Z,-8.13
2018-03-02T03:05:28.542Z,-8.15
2018-03-02T03:06:28.678Z,-8.18
2018-03-02T03:07:28.821Z,-8.23
2018-03-02T03:08:28.960Z,-8.19
2018-03-02T03:09:29.105Z,-8.25
2018-03-02T03:10:29.245Z,-8.22
2018-03-02T03:11:29.643Z,-8.22
2018-03-02T03:12:29.540Z,-8.29
2018-03-02T03:13:29.683Z,-8.28
2018-03-02T03:15:29.959Z,-8.26
2018-03-02T03:16:30.110Z,-8.23
2018-03-02T03:17:30.245Z,-8.25
2018-03-02T03:18:30.388Z,-8.15
2018-03-02T03:19:30.527Z,-8.21
2018-03-02T03:20:30.671Z,-8.22
2018-03-02T03:21:30.811Z,-8.22
2018-03-02T03:22:30.959Z,-8.21
2018-03-02T03:23:31.100Z,-8.25
2018-03-02T03:24:31.244Z,-8.21
2018-03-02T03:25:31.387Z,-8.23
2018-03-02T03:26:31.526Z,-8.23
2018-03-02T03:27:31.663Z,-8.22
2018-03-02T03:28:31.801Z,-8.23
2018-03-02T03:29:31.950Z,-8.21
2018-03-02T03:30:32.086Z,-8.22
2018-03-02T03:31:32.228Z,-8.21
2018-03-02T03:32:32.376Z,-8.19
2018-03-02T03:33:32.515Z,-8.22
2018-03-02T03:34:32.654Z,-8.15
2018-03-02T03:35:32.801Z,-8.28
2018-03-02T03:36:32.937Z,-8.23
2018-03-02T03:37:33.085Z,-8.25
2018-03-02T03:38:33.224Z,-8.21
2018-03-02T03:39:33.361Z,-8.16
2018-03-02T03:40:33.506Z,-8.18
2018-03-02T03:41:33.945Z,-8.26
2018-03-02T03:42:33.787Z,-8.25
2018-03-02T03:43:33.929Z,-8.26
2018-03-02T03:44:34.072Z,-8.37
2018-03-02T03:45:34.206Z,-8.23
2018-03-02T03:46:34.351Z,-8.32
2018-03-02T03:47:34.771Z,-8.31
2018-03-02T03:48:34.632Z,-8.36
2018-03-02T03:49:34.771Z,-8.42
2018-03-02T03:50:34.914Z,-8.34
2018-03-02T03:51:35.056Z,-8.31
2018-03-02T03:52:35.195Z,-8.26
2018-03-02T03:53:35.342Z,-8.23
2018-03-02T03:54:35.487Z,-8.36
2018-03-02T03:55:35.621Z,-8.25
2018-03-02T03:56:36.020Z,-8.36
2018-03-02T03:57:35.906Z,-8.37
2018-03-02T03:58:36.049Z,-8.37
2018-03-02T03:59:36.195Z,-8.31
2018-03-02T04:00:36.325Z,-8.31
2018-03-02T04:01:36.468Z,-8.39
2018-03-02T04:02:36.610Z,-8.39
2018-03-02T04:03:36.751Z,-8.37
2018-03-02T04:04:36.891Z,-8.32
2018-03-02T04:05:37.032Z,-8.36
2018-03-02T04:06:37.180Z,-8.36
2018-03-02T04:07:37.338Z,-8.29
2018-03-02T04:08:37.463Z,-8.43
2018-03-02T04:09:37.601Z,-8.43
2018-03-02T04:10:37.740Z,-8.36
2018-03-02T04:11:37.879Z,-8.49
2018-03-02T04:12:38.023Z,-8.49
2018-03-02T04:13:38.212Z,-8.50
2018-03-02T04:14:38.306Z,-8.47
2018-03-02T04:15:38.444Z,-8.54
2018-03-02T04:16:38.590Z,-8.46
2018-03-02T04:17:38.725Z,-8.50
2018-03-02T04:18:38.873Z,-8.43
2018-03-02T04:19:39.012Z,-8.42
2018-03-02T04:20:39.151Z,-8.44
2018-03-02T04:21:39.290Z,-8.36
2018-03-02T04:22:39.436Z,-8.42
2018-03-02T04:23:39.576Z,-8.52
2018-03-02T04:24:39.718Z,-8.52
2018-03-02T04:25:39.862Z,-8.49
2018-03-02T04:26:39.997Z,-8.49
2018-03-02T04:27:40.141Z,-8.49
2018-03-02T04:28:40.283Z,-8.52
2018-03-02T04:29:40.419Z,-8.64
2018-03-02T04:30:40.561Z,-8.58
2018-03-02T04:31:40.702Z,-8.61
2018-03-02T04:32:40.847Z,-8.78
2018-03-02T04:33:40.997Z,-8.62
2018-03-02T04:34:41.128Z,-8.68
2018-03-02T04:35:41.268Z,-8.68
2018-03-02T04:36:41.408Z,-8.62
2018-03-02T04:37:41.558Z,-8.54
2018-03-02T04:38:41.705Z,-8.55
2018-03-02T04:39:41.835Z,-8.54
2018-03-02T04:40:41.984Z,-8.61
2018-03-02T04:41:42.122Z,-8.64
2018-03-02T04:42:42.266Z,-8.46
2018-03-02T04:43:42.407Z,-8.54
2018-03-02T04:44:42.549Z,-8.52
2018-03-02T04:45:42.691Z,-8.58
2018-03-02T04:46:42.838Z,-8.47
2018-03-02T04:47:42.986Z,-8.52
2018-03-02T04:48:43.136Z,-8.54
2018-03-02T04:49:43.277Z,-8.50
2018-03-02T04:50:43.423Z,-8.50
2018-03-02T04:51:43.555Z,-8.42
2018-03-02T04:52:43.707Z,-8.40
2018-03-02T04:53:43.838Z,-8.43
2018-03-02T04:54:43.978Z,-8.44
2018-03-02T04:55:44.122Z,-8.46
2018-03-02T04:56:44.263Z,-8.42
2018-03-02T04:57:44.406Z,-8.49
2018-03-02T04:58:44.547Z,-8.50
2018-03-02T04:59:44.689Z,-8.44
2018-03-02T05:00:44.833Z,-8.44
2018-03-02T05:01:44.972Z,-8.40
2018-03-02T05:02:45.122Z,-8.42
2018-03-02T05:03:45.258Z,-8.42
2018-03-02T05:04:45.395Z,-8.49
2018-03-02T05:05:45.543Z,-8.49
2018-03-02T05:06:45.683Z,-8.55
2018-03-02T05:07:45.820Z,-8.47
2018-03-02T05:08:45.965Z,-8.49
2018-03-02T05:09:46.110Z,-8.65
2018-03-02T05:10:46.248Z,-8.47
2018-03-02T05:11:46.396Z,-8.52
2018-03-02T05:12:46.537Z,-8.50
2018-03-02T05:13:46.675Z,-8.49
2018-03-02T05:14:46.817Z,-8.49
2018-03-02T05:15:46.954Z,-8.49
2018-03-02T05:16:47.096Z,-8.54
2018-03-02T05:17:47.239Z,-8.54
2018-03-02T05:18:47.382Z,-8.46
2018-03-02T05:19:47.530Z,-8.49
2018-03-02T05:20:47.667Z,-8.39
2018-03-02T05:21:47.807Z,-8.44
2018-03-02T05:22:47.956Z,-8.46
2018-03-02T05:23:48.093Z,-8.43
2018-03-02T05:24:48.233Z,-8.37
2018-03-02T05:25:48.375Z,-8.43
2018-03-02T05:26:48.520Z,-8.49
2018-03-02T05:27:48.658Z,-8.50
2018-03-02T05:28:48.796Z,-8.58
2018-03-02T05:29:48.935Z,-8.68
2018-03-02T05:30:49.073Z,-8.65
2018-03-02T05:31:49.219Z,-8.70
2018-03-02T05:32:49.361Z,-8.68
2018-03-02T05:33:49.501Z,-8.62
2018-03-02T05:34:49.639Z,-8.60
2018-03-02T05:35:49.771Z,-8.67
2018-03-02T05:36:49.917Z,-8.76
2018-03-02T05:37:50.058Z,-8.62
2018-03-02T05:38:50.199Z,-8.49
2018-03-02T05:39:50.345Z,-8.60
2018-03-02T05:40:50.483Z,-8.70
2018-03-02T05:41:50.626Z,-8.75
2018-03-02T05:42:50.770Z,-8.81
2018-03-02T05:43:50.906Z,-8.73
2018-03-02T05:44:51.051Z,-8.78
2018-03-02T05:45:51.221Z,-8.79
2018-03-02T05:46:51.330Z,-8.73
2018-03-02T05:47:51.480Z,-8.81
2018-03-02T05:48:51.614Z,-8.79
2018-03-02T05:49:51.754Z,-8.75
2018-03-02T05:50:51.901Z,-8.64
2018-03-02T05:51:52.038Z,-8.76
2018-03-02T05:52:52.182Z,-8.78
2018-03-02T05:53:52.321Z,-8.72
2018-03-02T05:54:52.464Z,-8.68
2018-03-02T05:55:52.604Z,-8.61
2018-03-02T05:56:52.759Z,-8.67
2018-03-02T05:57:52.891Z,-8.61
2018-03-02T05:58:53.031Z,-8.76
2018-03-02T05:59:53.171Z,-8.75
2018-03-02T06:00:53.315Z,-8.68
2018-03-02T06:01:53.449Z,-8.76
2018-03-02T06:02:53.586Z,-8.75
2018-03-02T06:03:53.735Z,-8.61
2018-03-02T06:04:53.878Z,-8.67
2018-03-02T06:05:54.033Z,-8.65
2018-03-02T06:06:54.164Z,-8.61
2018-03-02T06:07:54.324Z,-8.58
2018-03-02T06:08:54.442Z,-8.50
2018-03-02T06:09:54.589Z,-8.73
2018-03-02T06:10:54.732Z,-8.76
2018-03-02T06:11:54.887Z,-8.79
2018-03-02T06:12:55.008Z,-8.73
2018-03-02T06:13:55.145Z,-8.75
2018-03-02T06:14:55.286Z,-8.78
2018-03-02T06:15:55.429Z,-8.73
2018-03-02T06:16:55.573Z,-8.67
2018-03-02T06:17:55.720Z,-8.64
2018-03-02T06:18:55.856Z,-8.65
2018-03-02T06:19:56.263Z,-8.64
2018-03-02T06:20:56.139Z,-8.61
2018-03-02T06:21:56.284Z,-8.62
2018-03-02T06:22:56.417Z,-8.52
2018-03-02T06:23:56.563Z,-8.60
2018-03-02T06:24:56.700Z,-8.72
2018-03-02T06:25:56.849Z,-8.61
2018-03-02T06:26:57.002Z,-8.73
2018-03-02T06:27:57.125Z,-8.62
2018-03-02T06:28:57.266Z,-8.61
2018-03-02T06:29:57.415Z,-8.62
2018-03-02T06:30:57.551Z,-8.54
2018-03-02T06:31:57.689Z,-8.64
2018-03-02T06:32:57.834Z,-8.61
2018-03-02T06:33:57.977Z,-8.67
2018-03-02T06:35:58.258Z,-8.75
2018-03-02T06:36:58.400Z,-8.72
2018-03-02T06:37:58.544Z,-8.55
2018-03-02T06:38:58.687Z,-8.55
2018-03-02T06:39:58.831Z,-8.49
2018-03-02T06:40:58.973Z,-8.50
2018-03-02T06:41:59.122Z,-8.44
2018-03-02T06:42:59.257Z,-8.52
2018-03-02T06:43:59.398Z,-8.47
2018-03-02T06:44:59.548Z,-8.49
2018-03-02T06:45:59.684Z,-8.46
2018-03-02T06:46:59.826Z,-8.47
2018-03-02T06:47:59.962Z,-8.44
2018-03-02T06:49:00.111Z,-8.47
2018-03-02T06:51:00.377Z,-8.46
2018-03-02T06:52:00.516Z,-8.36
2018-03-02T06:53:00.660Z,-8.34
2018-03-02T06:54:00.803Z,-8.43
2018-03-02T06:55:00.946Z,-8.50
2018-03-02T06:56:01.087Z,-8.57
2018-03-02T06:57:01.231Z,-8.50
2018-03-02T06:58:01.372Z,-8.64
2018-03-02T06:59:01.517Z,-8.62
2018-03-02T07:00:01.657Z,-8.60
2018-03-02T07:01:01.795Z,-8.62
2018-03-02T07:02:02.446Z,-8.55
2018-03-02T07:03:02.088Z,-8.55
2018-03-02T07:04:02.222Z,-8.55
2018-03-02T07:05:02.387Z,-8.52
2018-03-02T07:06:02.505Z,-8.49
2018-03-02T07:07:02.650Z,-8.47
2018-03-02T07:08:02.790Z,-8.47
2018-03-02T07:09:02.929Z,-8.49
2018-03-02T07:10:03.081Z,-8.52
2018-03-02T07:11:03.214Z,-8.31
2018-03-02T07:12:03.353Z,-8.29
2018-03-02T07:13:03.496Z,-8.31
2018-03-02T07:14:03.642Z,-8.37
2018-03-02T07:15:03.785Z,-8.32
2018-03-02T07:16:03.921Z,-8.32
2018-03-02T07:17:04.398Z,-8.42
2018-03-02T07:18:04.211Z,-8.42
2018-03-02T07:19:04.360Z,-8.49
2018-03-02T07:20:04.501Z,-8.49
2018-03-02T07:21:04.644Z,-8.50
2018-03-02T07:22:04.781Z,-8.52
2018-03-02T07:23:04.916Z,-8.42
2018-03-02T07:24:05.067Z,-8.37
2018-03-02T07:25:05.203Z,-8.29
2018-03-02T07:26:05.625Z,-8.32
2018-03-02T07:27:05.479Z,-8.52
2018-03-02T07:28:05.627Z,-8.54
2018-03-02T07:29:06.047Z,-8.42
2018-03-02T07:30:05.911Z,-8.54
2018-03-02T07:31:06.056Z,-8.49
2018-03-02T07:32:06.470Z,-8.49
2018-03-02T07:33:06.337Z,-8.44
2018-03-02T07:34:06.481Z,-8.44
2018-03-02T07:35:06.626Z,-8.44
2018-03-02T07:36:06.760Z,-8.50
2018-03-02T07:37:06.906Z,-8.49
2018-03-02T07:38:07.043Z,-8.44
2018-03-02T07:39:07.184Z,-8.37
2018-03-02T07:40:07.329Z,-8.34
2018-03-02T07:41:07.736Z,-8.25
2018-03-02T07:42:07.610Z,-8.26
2018-03-02T07:43:07.754Z,-8.22
2018-03-02T07:44:08.168Z,-8.28
2018-03-02T07:45:08.038Z,-8.04
2018-03-02T07:46:08.183Z,-7.91
2018-03-02T07:47:08.593Z,-7.67
2018-03-02T07:48:08.475Z,-7.58
2018-03-02T07:49:08.610Z,-7.40
2018-03-02T07:50:08.748Z,-7.14
2018-03-02T07:51:08.890Z,-6.89
2018-03-02T07:52:09.033Z,-6.46
2018-03-02T07:53:09.185Z,-6.32
2018-03-02T07:54:09.322Z,-6.21
2018-03-02T07:55:09.457Z,-6.24
2018-03-02T07:56:09.601Z,-6.24
2018-03-02T07:57:09.742Z,-5.96
2018-03-02T07:58:09.881Z,-6.00
2018-03-02T07:59:10.021Z,-5.68
2018-03-02T08:00:10.171Z,-5.75
2018-03-02T08:01:10.313Z,-5.93
2018-03-02T08:02:10.456Z,-5.76
2018-03-02T08:03:10.609Z,-5.95
2018-03-02T08:04:10.742Z,-5.57
2018-03-02T08:05:10.888Z,-5.47
2018-03-02T08:06:11.030Z,-5.72
2018-03-02T08:07:11.171Z,-5.85
2018-03-02T08:08:11.314Z,-5.95
2018-03-02T08:09:11.505Z,-5.93
2018-03-02T08:10:11.603Z,-6.08
2018-03-02T08:11:11.995Z,-5.99
2018-03-02T08:12:11.888Z,-5.92
2018-03-02T08:13:12.034Z,-5.86
2018-03-02T08:14:12.425Z,-5.95
2018-03-02T08:15:12.322Z,-5.89
2018-03-02T08:16:12.487Z,-5.66
2018-03-02T08:17:12.620Z,-5.75
2018-03-02T08:18:12.752Z,-5.60
2018-03-02T08:19:12.898Z,-5.72
2018-03-02T08:20:13.040Z,-5.64
2018-03-02T08:21:13.189Z,-5.79
2018-03-02T08:22:13.337Z,-5.47
2018-03-02T08:23:13.488Z,-5.46
2018-03-02T08:24:13.631Z,-5.47
2018-03-02T08:25:13.765Z,-5.27
2018-03-02T08:26:14.164Z,-5.25
2018-03-02T08:27:14.062Z,-5.17
2018-03-02T08:28:14.204Z,-5.31
2018-03-02T08:29:14.359Z,-5.43
2018-03-02T08:30:14.498Z,-5.31
2018-03-02T08:31:14.639Z,-5.29
2018-03-02T08:32:14.785Z,-5.36
2018-03-02T08:33:14.927Z,-5.56
2018-03-02T08:34:15.082Z,-5.39
2018-03-02T08:35:15.226Z,-5.33
2018-03-02T08:36:15.371Z,-5.39
2018-03-02T08:37:15.522Z,-5.28
2018-03-02T08:38:15.660Z,-5.21
2018-03-02T08:39:15.813Z,-5.39
2018-03-02T08:40:15.955Z,-5.28
2018-03-02T08:42:16.248Z,-5.74
2018-03-02T08:43:16.391Z,-5.79
2018-03-02T08:44:16.539Z,-5.86
2018-03-02T08:45:16.685Z,-5.74
2018-03-02T08:46:16.829Z,-5.58
2018-03-02T08:47:16.978Z,-5.31
2018-03-02T08:48:17.194Z,-5.21
2018-03-02T08:49:17.265Z,-5.10
2018-03-02T08:50:17.400Z,-5.19
2018-03-02T08:51:17.551Z,-5.39
2018-03-02T08:52:17.695Z,-5.46
2018-03-02T08:53:17.845Z,-5.39
2018-03-02T08:54:17.989Z,-5.24
2018-03-02T08:55:18.136Z,-4.95
2018-03-02T08:56:18.298Z,-4.82
2018-03-02T08:57:18.414Z,-4.77
2018-03-02T08:58:18.564Z,-5.00
2018-03-02T08:59:18.707Z,-4.89
2018-03-02T09:00:18.882Z,-4.70
2018-03-02T09:01:19.047Z,-4.59
2018-03-02T09:02:19.201Z,-4.60
2018-03-02T09:03:19.347Z,-4.43
2018-03-02T09:04:19.487Z,-4.48
2018-03-02T09:05:19.631Z,-4.64
2018-03-02T09:06:19.783Z,-4.69
2018-03-02T09:07:19.938Z,-4.75
2018-03-02T09:08:20.077Z,-4.67
2018-03-02T09:09:20.237Z,-5.06
2018-03-02T09:10:20.371Z,-4.78
2018-03-02T09:11:20.508Z,-4.75
2018-03-02T09:12:20.656Z,-4.75
2018-03-02T09:13:20.797Z,-4.87
2018-03-02T09:14:20.946Z,-5.06
2018-03-02T09:15:21.095Z,-5.10
2018-03-02T09:16:21.365Z,-5.03
2018-03-02T09:17:21.409Z,-4.98
2018-03-02T09:18:21.562Z,-5.03
2018-03-02T09:19:21.691Z,-4.92
2018-03-02T09:20:21.838Z,-4.77
2018-03-02T09:21:21.985Z,-4.70
2018-03-02T09:22:22.107Z,-4.82
2018-03-02T09:23:22.272Z,-4.79
2018-03-02T09:24:22.411Z,-4.88
2018-03-02T09:25:22.571Z,-5.13
2018-03-02T09:26:22.692Z,-5.25
2018-03-02T09:27:22.837Z,-5.13
2018-03-02T09:28:23.008Z,-5.22
2018-03-02T09:29:23.152Z,-5.17
2018-03-02T09:30:23.293Z,-5.18
2018-03-02T09:31:23.443Z,-5.10
2018-03-02T09:32:23.598Z,-5.17
2018-03-02T09:33:23.739Z,-5.14
2018-03-02T09:34:23.883Z,-5.08
2018-03-02T09:35:24.029Z,-5.00
2018-03-02T09:36:24.172Z,-5.19
2018-03-02T09:37:24.319Z,-5.14
2018-03-02T09:38:24.465Z,-5.09
2018-03-02T09:39:24.611Z,-5.27
2018-03-02T09:40:24.758Z,-5.17
2018-03-02T09:41:24.903Z,-5.28
2018-03-02T09:42:25.051Z,-5.19
2018-03-02T09:43:25.190Z,-5.22
2018-03-02T09:44:25.348Z,-5.18
2018-03-02T09:45:25.481Z,-5.14
2018-03-02T09:46:25.625Z,-5.05
2018-03-02T09:47:25.769Z,-4.96
2018-03-02T09:48:25.914Z,-5.21
2018-03-02T09:49:26.067Z,-5.10
2018-03-02T09:50:26.209Z,-5.24
2018-03-02T09:51:26.351Z,-5.27
2018-03-02T09:52:26.498Z,-5.33
2018-03-02T09:53:26.645Z,-5.33
2018-03-02T09:54:26.789Z,-5.38
2018-03-02T09:55:26.938Z,-5.39
2018-03-02T09:56:27.083Z,-5.39
2018-03-02T09:57:27.229Z,-5.38
2018-03-02T09:58:27.371Z,-5.33
2018-03-02T09:59:27.517Z,-5.10
2018-03-02T10:00:27.676Z,-4.82
2018-03-02T10:01:27.812Z,-4.84
2018-03-02T10:02:27.960Z,-5.02
2018-03-02T10:03:28.105Z,-4.98
2018-03-02T10:04:28.240Z,-4.91
2018-03-02T10:05:28.388Z,-4.81
2018-03-02T10:06:28.537Z,-4.67
2018-03-02T10:07:28.679Z,-4.53
2018-03-02T10:08:28.828Z,-4.53
2018-03-02T10:09:28.971Z,-4.39
2018-03-02T10:10:29.110Z,-4.41
2018-03-02T10:11:29.318Z,-4.57
2018-03-02T10:12:29.650Z,-4.49
2018-03-02T10:13:29.556Z,-4.50
2018-03-02T10:14:29.716Z,-4.61
2018-03-02T10:15:29.849Z,-4.49
2018-03-02T10:16:29.990Z,-4.39
2018-03-02T10:17:30.144Z,-4.43
2018-03-02T10:19:30.420Z,-4.49
2018-03-02T10:20:30.565Z,-4.43
2018-03-02T10:21:30.713Z,-4.52
2018-03-02T10:22:30.857Z,-4.63
2018-03-02T10:23:31.006Z,-4.59
2018-03-02T10:24:31.150Z,-4.63
2018-03-02T10:25:31.299Z,-4.66
2018-03-02T10:26:31.448Z,-4.81
2018-03-02T10:27:31.606Z,-4.79
2018-03-02T10:28:31.737Z,-4.88
2018-03-02T10:29:31.884Z,-4.85
2018-03-02T10:30:32.033Z,-4.78
2018-03-02T10:31:32.175Z,-4.49
2018-03-02T10:32:32.321Z,-4.32
2018-03-02T10:34:32.611Z,-4.34
2018-03-02T10:35:32.755Z,-4.31
2018-03-02T10:36:32.899Z,-4.30
2018-03-02T10:37:33.046Z,-4.38
2018-03-02T10:38:33.192Z,-4.17
2018-03-02T10:39:33.337Z,-4.16
2018-03-02T10:40:33.491Z,-4.03
2018-03-02T10:41:33.640Z,-4.04
2018-03-02T10:42:33.780Z,-4.06
2018-03-02T10:43:33.922Z,-4.16
2018-03-02T10:44:34.075Z,-4.28
2018-03-02T10:45:34.221Z,-4.34
2018-03-02T10:46:34.362Z,-4.28
2018-03-02T10:47:34.506Z,-4.28
2018-03-02T10:48:34.650Z,-4.32
2018-03-02T10:49:34.800Z,-4.31
2018-03-02T10:50:34.943Z,-4.27
2018-03-02T10:51:35.089Z,-4.09
2018-03-02T10:52:35.254Z,-4.09
2018-03-02T10:53:35.413Z,-4.21
2018-03-02T10:54:35.562Z,-4.25
2018-03-02T10:55:35.713Z,-4.27
2018-03-02T10:56:35.857Z,-4.41
2018-03-02T10:57:36.000Z,-4.32
2018-03-02T10:58:36.160Z,-4.30
2018-03-02T10:59:36.289Z,-4.13
2018-03-02T11:00:36.436Z,-4.06
2018-03-02T11:01:36.584Z,-3.92
2018-03-02T11:02:36.727Z,-3.89
2018-03-02T11:03:36.871Z,-4.02
2018-03-02T11:04:37.017Z,-4.12
2018-03-02T11:05:37.162Z,-4.27
2018-03-02T11:06:37.311Z,-4.27
2018-03-02T11:07:37.450Z,-4.31
2018-03-02T11:08:37.596Z,-4.17
2018-03-02T11:09:37.751Z,-4.02
2018-03-02T11:10:37.886Z,-3.88
2018-03-02T11:11:38.033Z,-3.83
2018-03-02T11:12:38.181Z,-3.67
2018-03-02T11:13:38.324Z,-3.66
2018-03-02T11:14:38.469Z,-3.83
2018-03-02T11:15:38.616Z,-3.77
2018-03-02T11:16:38.759Z,-3.66
2018-03-02T11:17:38.907Z,-3.70
2018-03-02T11:18:39.052Z,-3.63
2018-03-02T11:19:39.203Z,-3.55
2018-03-02T11:20:39.349Z,-3.48
2018-03-02T11:21:39.493Z,-3.46
2018-03-02T11:22:39.638Z,-3.48
2018-03-02T11:23:39.786Z,-3.48
2018-03-02T11:24:39.929Z,-3.34
2018-03-02T11:25:40.079Z,-3.27
2018-03-02T11:26:40.224Z,-3.09
2018-03-02T11:27:40.368Z,-2.86
2018-03-02T11:28:40.515Z,-2.91
2018-03-02T11:29:40.661Z,-2.83
2018-03-02T11:30:40.809Z,-2.74
2018-03-02T11:31:40.958Z,-2.74
2018-03-02T11:32:41.107Z,-2.81
2018-03-02T11:33:41.255Z,-2.81
2018-03-02T11:34:41.396Z,-2.65
2018-03-02T11:35:41.551Z,-2.69
2018-03-02T11:36:41.692Z,-2.71
2018-03-02T11:37:41.833Z,-2.73
2018-03-02T11:38:41.989Z,-2.76
2018-03-02T11:39:42.139Z,-2.77
2018-03-02T11:40:42.297Z,-2.83
2018-03-02T11:41:42.424Z,-2.78
2018-03-02T11:42:42.570Z,-2.71
2018-03-02T11:43:42.724Z,-2.92
2018-03-02T11:44:42.866Z,-3.01
2018-03-02T11:45:43.036Z,-2.98
2018-03-02T11:46:43.187Z,-2.88
2018-03-02T11:47:43.327Z,-2.74
2018-03-02T11:48:43.489Z,-2.65
2018-03-02T11:49:43.646Z,-2.53
2018-03-02T11:50:43.829Z,-2.45
2018-03-02T11:51:43.920Z,-2.26
2018-03-02T11:53:44.206Z,-2.21
2018-03-02T11:54:44.385Z,-2.19
2018-03-02T11:55:44.532Z,-2.13
2018-03-02T11:56:44.667Z,-2.07
2018-03-02T11:57:44.811Z,-2.08
2018-03-02T11:58:44.954Z,-2.12
2018-03-02T11:59:45.106Z,-2.07
2018-03-02T12:00:45.248Z,-2.16
2018-03-02T12:01:45.394Z,-2.21
2018-03-02T12:02:45.561Z,-2.52
2018-03-02T12:03:45.679Z,-2.76
2018-03-02T12:05:45.979Z,-2.66
2018-03-02T12:06:46.110Z,-2.62
2018-03-02T12:08:46.397Z,-2.32
2018-03-02T12:09:46.541Z,-2.38
2018-03-02T12:10:46.692Z,-2.41
2018-03-02T12:11:46.833Z,-2.56
2018-03-02T12:12:46.992Z,-2.50
2018-03-02T12:13:47.147Z,-2.30
2018-03-02T12:14:47.278Z,-2.32
2018-03-02T12:15:47.427Z,-2.38
2018-03-02T12:16:47.645Z,-2.28
2018-03-02T12:17:47.716Z,-2.19
2018-03-02T12:18:47.867Z,-2.05
2018-03-02T12:19:48.006Z,-1.92
2018-03-02T12:20:48.154Z,-1.89
2018-03-02T12:21:48.309Z,-1.79
2018-03-02T12:22:48.514Z,-1.87
2018-03-02T12:23:48.583Z,-1.89
2018-03-02T12:24:48.732Z,-2.00
2018-03-02T12:25:48.883Z,-2.05
2018-03-02T12:26:49.037Z,-2.04
2018-03-02T12:27:49.176Z,-1.90
2018-03-02T12:28:49.319Z,-2.01
2018-03-02T12:29:49.467Z,-2.02
2018-03-02T12:30:49.615Z,-2.01
2018-03-02T12:31:49.765Z,-2.04
2018-03-02T12:32:49.919Z,-2.02
2018-03-02T12:33:50.059Z,-1.92
2018-03-02T12:34:50.205Z,-1.98
2018-03-02T12:35:50.351Z,-2.01
2018-03-02T12:36:50.509Z,-2.05
2018-03-02T12:37:50.648Z,-2.04
2018-03-02T12:38:50.869Z,-1.87
2018-03-02T12:39:50.940Z,-1.94
2018-03-02T12:40:51.086Z,-2.00
2018-03-02T12:41:51.236Z,-2.00
2018-03-02T12:42:51.387Z,-1.97
2018-03-02T12:43:51.515Z,-2.01
2018-03-02T12:44:51.665Z,-2.01
2018-03-02T12:45:51.811Z,-2.05
2018-03-02T12:46:51.958Z,-2.00
2018-03-02T12:47:52.105Z,-1.80
2018-03-02T12:48:52.266Z,-1.80
2018-03-02T12:49:52.410Z,-1.82
2018-03-02T12:50:52.547Z,-2.10
2018-03-02T12:51:52.705Z,-2.15
2018-03-02T12:52:52.841Z,-2.16
2018-03-02T12:53:52.991Z,-2.23
2018-03-02T12:54:53.138Z,-2.35
2018-03-02T12:55:53.278Z,-2.40
2018-03-02T12:56:53.429Z,-2.26
2018-03-02T12:57:53.580Z,-2.48
2018-03-02T12:58:53.722Z,-2.52
2018-03-02T12:59:53.871Z,-2.47
2018-03-02T13:00:54.021Z,-2.38
2018-03-02T13:01:54.176Z,-2.35
2018-03-02T13:02:54.312Z,-2.30
2018-03-02T13:03:54.459Z,-2.15